sensor_id;sensor_type;location;lat;lon;timestamp;P1;durP1;ratioP1;P2;durP2;ratioP2
69719;SDS011;56988;56.122;13.798;2024-03-02T00:00:49;0.20;;;0.20;;
69719;SDS011;56988;56.122;13.798;2024-03-02T00:01:50;0.20;;;0.20;;
69719;SDS011;56988;56.122;13.798;2024-03-02T00:02:50;22.67;;;20.97;;
69719;SDS011;56988;56.122;13.798;2024-03-02T00:03:50;1.80;;;1.80;;
69719;SDS011;56988;56.122;13.798;2024-03-02T00:04:51;1.30;;;1.30;;
69719;SDS011;56988;56.122;13.798;2024-03-02T00:05:51;1.20;;;1.20;;
69719;SDS011;56988;56.122;13.798;2024-03-02T00:06:52;1.50;;;1.50;;
69719;SDS011;56988;56.122;13.798;2024-03-02T00:07:55;1.00;;;1.00;;
69719;SDS011;56988;56.122;13.798;2024-03-02T00:08:58;0.90;;;0.90;;
69719;SDS011;56988;56.122;13.798;2024-03-02T00:09:59;1.00;;;1.00;;
69719;SDS011;56988;56.122;13.798;2024-03-02T00:11:00;0.80;;;0.80;;
69719;SDS011;56988;56.122;13.798;2024-03-02T00:13:01;1.57;;;1.57;;
69719;SDS011;56988;56.122;13.798;2024-03-02T00:14:01;0.90;;;0.90;;
69719;SDS011;56988;56.122;13.798;2024-03-02T00:15:01;0.90;;;0.90;;
69719;SDS011;56988;56.122;13.798;2024-03-02T00:16:02;1.02;;;1.02;;
69719;SDS011;56988;56.122;13.798;2024-03-02T00:17:05;1.00;;;1.00;;
69719;SDS011;56988;56.122;13.798;2024-03-02T00:18:11;1.10;;;1.10;;
69719;SDS011;56988;56.122;13.798;2024-03-02T00:19:12;0.90;;;0.90;;
69719;SDS011;56988;56.122;13.798;2024-03-02T00:20:13;0.70;;;0.70;;
69719;SDS011;56988;56.122;13.798;2024-03-02T00:21:18;0.70;;;0.70;;
69719;SDS011;56988;56.122;13.798;2024-03-02T00:22:20;0.80;;;0.80;;
69719;SDS011;56988;56.122;13.798;2024-03-02T00:23:20;0.80;;;0.80;;
69719;SDS011;56988;56.122;13.798;2024-03-02T00:24:24;0.80;;;0.80;;
69719;SDS011;56988;56.122;13.798;2024-03-02T00:25:26;0.80;;;0.80;;
69719;SDS011;56988;56.122;13.798;2024-03-02T00:26:26;0.90;;;0.90;;
69719;SDS011;56988;56.122;13.798;2024-03-02T00:27:26;0.90;;;0.90;;
69719;SDS011;56988;56.122;13.798;2024-03-02T00:28:31;0.80;;;0.80;;
69719;SDS011;56988;56.122;13.798;2024-03-02T00:29:34;1.00;;;1.00;;
69719;SDS011;56988;56.122;13.798;2024-03-02T00:31:35;1.00;;;1.00;;
69719;SDS011;56988;56.122;13.798;2024-03-02T00:32:35;1.27;;;1.27;;
69719;SDS011;56988;56.122;13.798;2024-03-02T00:33:39;1.20;;;1.20;;
69719;SDS011;56988;56.122;13.798;2024-03-02T00:34:40;1.20;;;1.20;;
69719;SDS011;56988;56.122;13.798;2024-03-02T00:35:42;1.50;;;1.50;;
69719;SDS011;56988;56.122;13.798;2024-03-02T00:36:43;1.50;;;1.50;;
69719;SDS011;56988;56.122;13.798;2024-03-02T00:37:45;1.70;;;1.70;;
69719;SDS011;56988;56.122;13.798;2024-03-02T00:38:48;2.10;;;2.10;;
69719;SDS011;56988;56.122;13.798;2024-03-02T00:39:49;2.15;;;2.15;;
69719;SDS011;56988;56.122;13.798;2024-03-02T00:40:49;2.50;;;2.50;;
69719;SDS011;56988;56.122;13.798;2024-03-02T00:41:50;2.80;;;2.75;;
69719;SDS011;56988;56.122;13.798;2024-03-02T00:42:50;1.90;;;1.90;;
69719;SDS011;56988;56.122;13.798;2024-03-02T00:44:53;0.50;;;0.50;;
69719;SDS011;56988;56.122;13.798;2024-03-02T00:45:54;0.60;;;0.60;;
69719;SDS011;56988;56.122;13.798;2024-03-02T00:46:54;0.60;;;0.60;;
69719;SDS011;56988;56.122;13.798;2024-03-02T00:47:54;0.60;;;0.60;;
69719;SDS011;56988;56.122;13.798;2024-03-02T00:48:55;0.60;;;0.60;;
69719;SDS011;56988;56.122;13.798;2024-03-02T00:49:56;0.60;;;0.60;;
69719;SDS011;56988;56.122;13.798;2024-03-02T00:50:56;0.70;;;0.70;;
69719;SDS011;56988;56.122;13.798;2024-03-02T00:51:57;0.60;;;0.60;;
69719;SDS011;56988;56.122;13.798;2024-03-02T00:52:57;0.70;;;0.70;;
69719;SDS011;56988;56.122;13.798;2024-03-02T00:54:01;0.70;;;0.70;;
69719;SDS011;56988;56.122;13.798;2024-03-02T00:55:04;0.70;;;0.70;;
69719;SDS011;56988;56.122;13.798;2024-03-02T00:56:05;0.70;;;0.70;;
69719;SDS011;56988;56.122;13.798;2024-03-02T00:57:10;0.70;;;0.70;;
69719;SDS011;56988;56.122;13.798;2024-03-02T00:58:12;0.70;;;0.70;;
69719;SDS011;56988;56.122;13.798;2024-03-02T00:59:12;0.80;;;0.80;;
69719;SDS011;56988;56.122;13.798;2024-03-02T01:00:12;0.80;;;0.80;;
69719;SDS011;56988;56.122;13.798;2024-03-02T01:01:15;0.80;;;0.80;;
69719;SDS011;56988;56.122;13.798;2024-03-02T01:02:16;1.00;;;1.00;;
69719;SDS011;56988;56.122;13.798;2024-03-02T01:03:16;0.83;;;0.83;;
69719;SDS011;56988;56.122;13.798;2024-03-02T01:04:16;1.10;;;1.10;;
69719;SDS011;56988;56.122;13.798;2024-03-02T01:05:16;0.63;;;0.63;;
69719;SDS011;56988;56.122;13.798;2024-03-02T01:06:16;1.00;;;1.00;;
69719;SDS011;56988;56.122;13.798;2024-03-02T01:07:17;1.00;;;1.00;;
69719;SDS011;56988;56.122;13.798;2024-03-02T01:08:17;0.80;;;0.80;;
69719;SDS011;56988;56.122;13.798;2024-03-02T01:09:17;0.88;;;0.88;;
69719;SDS011;56988;56.122;13.798;2024-03-02T01:10:17;0.80;;;0.80;;
69719;SDS011;56988;56.122;13.798;2024-03-02T01:11:18;0.90;;;0.90;;
69719;SDS011;56988;56.122;13.798;2024-03-02T01:12:18;0.70;;;0.70;;
69719;SDS011;56988;56.122;13.798;2024-03-02T01:13:18;0.90;;;0.90;;
69719;SDS011;56988;56.122;13.798;2024-03-02T01:14:18;0.93;;;0.93;;
69719;SDS011;56988;56.122;13.798;2024-03-02T01:15:19;0.90;;;0.90;;
69719;SDS011;56988;56.122;13.798;2024-03-02T01:16:19;0.88;;;0.88;;
69719;SDS011;56988;56.122;13.798;2024-03-02T01:17:19;0.93;;;0.93;;
69719;SDS011;56988;56.122;13.798;2024-03-02T01:18:20;0.80;;;0.80;;
69719;SDS011;56988;56.122;13.798;2024-03-02T01:20:21;0.88;;;0.88;;
69719;SDS011;56988;56.122;13.798;2024-03-02T01:21:21;0.90;;;0.90;;
69719;SDS011;56988;56.122;13.798;2024-03-02T01:22:22;0.82;;;0.82;;
69719;SDS011;56988;56.122;13.798;2024-03-02T01:23:25;0.90;;;0.90;;
69719;SDS011;56988;56.122;13.798;2024-03-02T01:24:25;1.00;;;1.00;;
69719;SDS011;56988;56.122;13.798;2024-03-02T01:25:25;0.90;;;0.90;;
69719;SDS011;56988;56.122;13.798;2024-03-02T01:26:26;1.00;;;1.00;;
69719;SDS011;56988;56.122;13.798;2024-03-02T01:27:26;0.90;;;0.90;;
69719;SDS011;56988;56.122;13.798;2024-03-02T01:29:27;0.90;;;0.90;;
69719;SDS011;56988;56.122;13.798;2024-03-02T01:30:28;0.90;;;0.90;;
69719;SDS011;56988;56.122;13.798;2024-03-02T01:31:28;0.90;;;0.90;;
69719;SDS011;56988;56.122;13.798;2024-03-02T01:32:28;0.93;;;0.93;;
69719;SDS011;56988;56.122;13.798;2024-03-02T01:33:28;0.90;;;0.90;;
69719;SDS011;56988;56.122;13.798;2024-03-02T01:34:29;0.90;;;0.90;;
69719;SDS011;56988;56.122;13.798;2024-03-02T01:35:29;1.00;;;1.00;;
69719;SDS011;56988;56.122;13.798;2024-03-02T01:36:29;0.90;;;0.90;;
69719;SDS011;56988;56.122;13.798;2024-03-02T01:38:29;0.90;;;0.90;;
69719;SDS011;56988;56.122;13.798;2024-03-02T01:39:31;0.90;;;0.90;;
69719;SDS011;56988;56.122;13.798;2024-03-02T01:40:32;0.80;;;0.80;;
69719;SDS011;56988;56.122;13.798;2024-03-02T01:41:32;0.90;;;0.90;;
69719;SDS011;56988;56.122;13.798;2024-03-02T01:42:32;0.80;;;0.80;;
69719;SDS011;56988;56.122;13.798;2024-03-02T01:43:33;1.10;;;1.10;;
69719;SDS011;56988;56.122;13.798;2024-03-02T01:44:33;1.00;;;1.00;;
69719;SDS011;56988;56.122;13.798;2024-03-02T01:45:34;0.60;;;0.60;;
69719;SDS011;56988;56.122;13.798;2024-03-02T01:46:35;59.72;;;55.33;;
69719;SDS011;56988;56.122;13.798;2024-03-02T01:47:36;65.80;;;62.53;;
69719;SDS011;56988;56.122;13.798;2024-03-02T01:48:36;57.83;;;55.22;;
69719;SDS011;56988;56.122;13.798;2024-03-02T01:49:36;1999.90;;;999.90;;
69719;SDS011;56988;56.122;13.798;2024-03-02T01:50:38;1999.90;;;999.90;;
69719;SDS011;56988;56.122;13.798;2024-03-02T01:51:39;65.53;;;62.60;;
69719;SDS011;56988;56.122;13.798;2024-03-02T01:52:39;1999.90;;;999.90;;
69719;SDS011;56988;56.122;13.798;2024-03-02T01:53:39;1999.90;;;999.90;;
69719;SDS011;56988;56.122;13.798;2024-03-02T01:54:39;1999.90;;;999.90;;
69719;SDS011;56988;56.122;13.798;2024-03-02T01:55:39;1999.90;;;999.90;;
69719;SDS011;56988;56.122;13.798;2024-03-02T01:56:40;1999.90;;;999.90;;
69719;SDS011;56988;56.122;13.798;2024-03-02T01:57:40;1999.90;;;999.90;;
69719;SDS011;56988;56.122;13.798;2024-03-02T01:58:40;15.63;;;13.20;;
69719;SDS011;56988;56.122;13.798;2024-03-02T01:59:40;1.35;;;1.35;;
69719;SDS011;56988;56.122;13.798;2024-03-02T02:00:41;1.50;;;1.50;;
69719;SDS011;56988;56.122;13.798;2024-03-02T02:01:41;1.20;;;1.20;;
69719;SDS011;56988;56.122;13.798;2024-03-02T02:02:41;1.57;;;1.57;;
69719;SDS011;56988;56.122;13.798;2024-03-02T02:04:41;45.73;;;42.90;;
69719;SDS011;56988;56.122;13.798;2024-03-02T02:05:42;1999.90;;;999.90;;
69719;SDS011;56988;56.122;13.798;2024-03-02T02:06:43;1999.90;;;999.90;;
69719;SDS011;56988;56.122;13.798;2024-03-02T02:07:44;1999.90;;;999.90;;
69719;SDS011;56988;56.122;13.798;2024-03-02T02:08:44;1999.90;;;999.90;;
69719;SDS011;56988;56.122;13.798;2024-03-02T02:09:45;1999.90;;;999.90;;
69719;SDS011;56988;56.122;13.798;2024-03-02T02:10:45;1999.90;;;999.90;;
69719;SDS011;56988;56.122;13.798;2024-03-02T02:11:45;1999.90;;;999.90;;
69719;SDS011;56988;56.122;13.798;2024-03-02T02:12:45;1999.90;;;999.90;;
69719;SDS011;56988;56.122;13.798;2024-03-02T02:13:46;1999.90;;;999.90;;
69719;SDS011;56988;56.122;13.798;2024-03-02T02:14:49;1999.90;;;999.90;;
69719;SDS011;56988;56.122;13.798;2024-03-02T02:15:52;1999.90;;;999.90;;
69719;SDS011;56988;56.122;13.798;2024-03-02T02:16:53;1999.90;;;999.90;;
69719;SDS011;56988;56.122;13.798;2024-03-02T02:17:53;1999.90;;;999.90;;
69719;SDS011;56988;56.122;13.798;2024-03-02T02:19:54;1999.90;;;999.90;;
69719;SDS011;56988;56.122;13.798;2024-03-02T02:20:54;1999.90;;;999.90;;
69719;SDS011;56988;56.122;13.798;2024-03-02T02:21:55;1999.90;;;999.90;;
69719;SDS011;56988;56.122;13.798;2024-03-02T02:23:01;1999.90;;;999.90;;
69719;SDS011;56988;56.122;13.798;2024-03-02T02:24:02;1999.90;;;999.90;;
69719;SDS011;56988;56.122;13.798;2024-03-02T02:25:04;1999.90;;;999.90;;
69719;SDS011;56988;56.122;13.798;2024-03-02T02:26:04;1999.90;;;999.90;;
69719;SDS011;56988;56.122;13.798;2024-03-02T02:27:04;1.48;;;1.48;;
69719;SDS011;56988;56.122;13.798;2024-03-02T02:28:05;2.53;;;2.53;;
69719;SDS011;56988;56.122;13.798;2024-03-02T02:29:05;3.53;;;3.43;;
69719;SDS011;56988;56.122;13.798;2024-03-02T02:30:06;1999.90;;;999.90;;
69719;SDS011;56988;56.122;13.798;2024-03-02T02:31:07;58.15;;;47.53;;
69719;SDS011;56988;56.122;13.798;2024-03-02T02:32:08;1999.90;;;999.90;;
69719;SDS011;56988;56.122;13.798;2024-03-02T02:33:08;815.80;;;70.35;;
69719;SDS011;56988;56.122;13.798;2024-03-02T02:34:09;449.05;;;54.50;;
69719;SDS011;56988;56.122;13.798;2024-03-02T02:35:09;85.78;;;32.58;;
69719;SDS011;56988;56.122;13.798;2024-03-02T02:37:10;714.35;;;65.35;;
69719;SDS011;56988;56.122;13.798;2024-03-02T02:38:10;731.85;;;65.85;;
69719;SDS011;56988;56.122;13.798;2024-03-02T02:39:11;752.67;;;68.57;;
69719;SDS011;56988;56.122;13.798;2024-03-02T02:40:13;920.50;;;77.63;;
69719;SDS011;56988;56.122;13.798;2024-03-02T02:41:13;498.55;;;62.88;;
69719;SDS011;56988;56.122;13.798;2024-03-02T02:42:14;844.30;;;75.30;;
69719;SDS011;56988;56.122;13.798;2024-03-02T02:43:14;819.07;;;69.70;;
69719;SDS011;56988;56.122;13.798;2024-03-02T02:44:14;968.33;;;79.50;;
69719;SDS011;56988;56.122;13.798;2024-03-02T02:45:14;558.45;;;65.78;;
69719;SDS011;56988;56.122;13.798;2024-03-02T02:46:15;699.30;;;63.90;;
69719;SDS011;56988;56.122;13.798;2024-03-02T02:47:15;773.40;;;70.87;;
69719;SDS011;56988;56.122;13.798;2024-03-02T02:48:15;866.17;;;70.57;;
69719;SDS011;56988;56.122;13.798;2024-03-02T02:49:15;689.70;;;67.03;;
69719;SDS011;56988;56.122;13.798;2024-03-02T02:50:15;892.53;;;77.00;;
69719;SDS011;56988;56.122;13.798;2024-03-02T02:51:16;739.88;;;70.50;;
69719;SDS011;56988;56.122;13.798;2024-03-02T02:52:16;784.70;;;73.22;;
69719;SDS011;56988;56.122;13.798;2024-03-02T02:53:17;794.80;;;71.47;;
69719;SDS011;56988;56.122;13.798;2024-03-02T02:54:18;760.50;;;67.30;;
69719;SDS011;56988;56.122;13.798;2024-03-02T02:55:18;786.30;;;71.17;;
69719;SDS011;56988;56.122;13.798;2024-03-02T02:56:18;825.57;;;75.37;;
69719;SDS011;56988;56.122;13.798;2024-03-02T02:57:18;694.73;;;69.77;;
69719;SDS011;56988;56.122;13.798;2024-03-02T02:58:18;781.00;;;69.10;;
69719;SDS011;56988;56.122;13.798;2024-03-02T02:59:19;780.87;;;72.03;;
69719;SDS011;56988;56.122;13.798;2024-03-02T03:00:19;908.58;;;80.57;;
69719;SDS011;56988;56.122;13.798;2024-03-02T03:01:20;389.92;;;59.35;;
69719;SDS011;56988;56.122;13.798;2024-03-02T03:02:20;866.90;;;76.87;;
69719;SDS011;56988;56.122;13.798;2024-03-02T03:03:20;694.53;;;72.90;;
69719;SDS011;56988;56.122;13.798;2024-03-02T03:04:20;659.40;;;70.30;;
69719;SDS011;56988;56.122;13.798;2024-03-02T03:05:20;902.13;;;79.90;;
69719;SDS011;56988;56.122;13.798;2024-03-02T03:06:21;726.53;;;76.32;;
69719;SDS011;56988;56.122;13.798;2024-03-02T03:07:21;932.43;;;83.07;;
69719;SDS011;56988;56.122;13.798;2024-03-02T03:08:21;698.57;;;65.73;;
69719;SDS011;56988;56.122;13.798;2024-03-02T03:09:23;657.95;;;71.80;;
69719;SDS011;56988;56.122;13.798;2024-03-02T03:10:23;807.67;;;78.97;;
69719;SDS011;56988;56.122;13.798;2024-03-02T03:11:25;876.00;;;81.53;;
69719;SDS011;56988;56.122;13.798;2024-03-02T03:12:26;723.47;;;74.20;;
69719;SDS011;56988;56.122;13.798;2024-03-02T03:13:26;928.13;;;78.57;;
69719;SDS011;56988;56.122;13.798;2024-03-02T03:14:26;892.60;;;79.20;;
69719;SDS011;56988;56.122;13.798;2024-03-02T03:15:27;684.40;;;69.53;;
69719;SDS011;56988;56.122;13.798;2024-03-02T03:16:27;744.73;;;76.77;;
69719;SDS011;56988;56.122;13.798;2024-03-02T03:17:27;708.97;;;74.47;;
69719;SDS011;56988;56.122;13.798;2024-03-02T03:18:27;685.58;;;70.25;;
69719;SDS011;56988;56.122;13.798;2024-03-02T03:19:27;844.73;;;77.90;;
69719;SDS011;56988;56.122;13.798;2024-03-02T03:20:28;612.35;;;73.45;;
69719;SDS011;56988;56.122;13.798;2024-03-02T03:21:28;643.33;;;73.67;;
69719;SDS011;56988;56.122;13.798;2024-03-02T03:23:28;512.75;;;66.40;;
69719;SDS011;56988;56.122;13.798;2024-03-02T03:24:28;602.08;;;72.57;;
69719;SDS011;56988;56.122;13.798;2024-03-02T03:25:29;558.65;;;72.43;;
69719;SDS011;56988;56.122;13.798;2024-03-02T03:26:29;488.40;;;63.03;;
69719;SDS011;56988;56.122;13.798;2024-03-02T03:27:29;420.77;;;70.18;;
69719;SDS011;56988;56.122;13.798;2024-03-02T03:28:30;318.80;;;62.72;;
69719;SDS011;56988;56.122;13.798;2024-03-02T03:29:30;435.20;;;72.55;;
69719;SDS011;56988;56.122;13.798;2024-03-02T03:30:30;392.93;;;69.23;;
69719;SDS011;56988;56.122;13.798;2024-03-02T03:31:30;355.08;;;61.83;;
69719;SDS011;56988;56.122;13.798;2024-03-02T03:32:30;339.60;;;67.97;;
69719;SDS011;56988;56.122;13.798;2024-03-02T03:33:31;439.30;;;68.40;;
69719;SDS011;56988;56.122;13.798;2024-03-02T03:34:34;251.80;;;49.43;;
69719;SDS011;56988;56.122;13.798;2024-03-02T03:35:34;432.83;;;66.60;;
69719;SDS011;56988;56.122;13.798;2024-03-02T03:36:34;365.50;;;66.28;;
69719;SDS011;56988;56.122;13.798;2024-03-02T03:37:35;319.70;;;63.60;;
69719;SDS011;56988;56.122;13.798;2024-03-02T03:38:35;390.02;;;73.80;;
69719;SDS011;56988;56.122;13.798;2024-03-02T03:39:36;457.83;;;68.10;;
69719;SDS011;56988;56.122;13.798;2024-03-02T03:40:36;462.80;;;74.80;;
69719;SDS011;56988;56.122;13.798;2024-03-02T03:41:37;423.40;;;69.85;;
69719;SDS011;56988;56.122;13.798;2024-03-02T03:42:37;222.17;;;49.17;;
69719;SDS011;56988;56.122;13.798;2024-03-02T03:43:38;379.17;;;71.22;;
69719;SDS011;56988;56.122;13.798;2024-03-02T03:44:38;463.40;;;75.33;;
69719;SDS011;56988;56.122;13.798;2024-03-02T03:46:39;386.40;;;67.77;;
69719;SDS011;56988;56.122;13.798;2024-03-02T03:47:39;482.43;;;75.20;;
69719;SDS011;56988;56.122;13.798;2024-03-02T03:48:39;391.50;;;62.87;;
69719;SDS011;56988;56.122;13.798;2024-03-02T03:49:40;506.67;;;73.35;;
69719;SDS011;56988;56.122;13.798;2024-03-02T03:50:40;530.90;;;75.63;;
69719;SDS011;56988;56.122;13.798;2024-03-02T03:52:41;597.50;;;75.53;;
69719;SDS011;56988;56.122;13.798;2024-03-02T03:53:41;418.67;;;69.03;;
69719;SDS011;56988;56.122;13.798;2024-03-02T03:54:41;626.33;;;80.20;;
69719;SDS011;56988;56.122;13.798;2024-03-02T03:55:43;692.58;;;82.28;;
69719;SDS011;56988;56.122;13.798;2024-03-02T03:56:43;591.05;;;73.90;;
69719;SDS011;56988;56.122;13.798;2024-03-02T03:57:43;656.60;;;79.82;;
69719;SDS011;56988;56.122;13.798;2024-03-02T03:58:43;602.57;;;71.20;;
69719;SDS011;56988;56.122;13.798;2024-03-02T03:59:43;810.20;;;90.60;;
69719;SDS011;56988;56.122;13.798;2024-03-02T04:00:44;597.15;;;75.93;;
69719;SDS011;56988;56.122;13.798;2024-03-02T04:01:44;483.47;;;68.27;;
69719;SDS011;56988;56.122;13.798;2024-03-02T04:03:45;771.13;;;76.93;;
69719;SDS011;56988;56.122;13.798;2024-03-02T04:04:45;536.57;;;71.23;;
69719;SDS011;56988;56.122;13.798;2024-03-02T04:05:46;764.97;;;80.18;;
69719;SDS011;56988;56.122;13.798;2024-03-02T04:06:46;655.00;;;74.20;;
69719;SDS011;56988;56.122;13.798;2024-03-02T04:07:46;784.95;;;89.13;;
69719;SDS011;56988;56.122;13.798;2024-03-02T04:08:46;729.80;;;81.33;;
69719;SDS011;56988;56.122;13.798;2024-03-02T04:09:46;731.80;;;82.80;;
69719;SDS011;56988;56.122;13.798;2024-03-02T04:10:47;630.10;;;77.50;;
69719;SDS011;56988;56.122;13.798;2024-03-02T04:11:47;622.42;;;77.43;;
69719;SDS011;56988;56.122;13.798;2024-03-02T04:12:48;440.60;;;67.70;;
69719;SDS011;56988;56.122;13.798;2024-03-02T04:13:49;760.10;;;89.55;;
69719;SDS011;56988;56.122;13.798;2024-03-02T04:14:49;904.63;;;91.32;;
69719;SDS011;56988;56.122;13.798;2024-03-02T04:15:49;626.37;;;76.57;;
69719;SDS011;56988;56.122;13.798;2024-03-02T04:16:49;919.50;;;92.93;;
69719;SDS011;56988;56.122;13.798;2024-03-02T04:18:50;613.67;;;76.43;;
69719;SDS011;56988;56.122;13.798;2024-03-02T04:19:50;734.27;;;82.90;;
69719;SDS011;56988;56.122;13.798;2024-03-02T04:20:50;835.23;;;83.93;;
69719;SDS011;56988;56.122;13.798;2024-03-02T04:21:50;553.03;;;67.37;;
69719;SDS011;56988;56.122;13.798;2024-03-02T04:22:50;783.57;;;85.60;;
69719;SDS011;56988;56.122;13.798;2024-03-02T04:23:51;1033.40;;;93.85;;
69719;SDS011;56988;56.122;13.798;2024-03-02T04:24:51;603.03;;;76.47;;
69719;SDS011;56988;56.122;13.798;2024-03-02T04:25:52;821.70;;;93.32;;
69719;SDS011;56988;56.122;13.798;2024-03-02T04:26:52;702.03;;;80.03;;
69719;SDS011;56988;56.122;13.798;2024-03-02T04:27:52;661.15;;;78.78;;
69719;SDS011;56988;56.122;13.798;2024-03-02T04:28:52;971.78;;;95.85;;
69719;SDS011;56988;56.122;13.798;2024-03-02T04:30:54;621.10;;;66.70;;
69719;SDS011;56988;56.122;13.798;2024-03-02T04:32:55;657.50;;;73.30;;
69719;SDS011;56988;56.122;13.798;2024-03-02T04:33:55;758.53;;;76.47;;
69719;SDS011;56988;56.122;13.798;2024-03-02T04:35:55;914.17;;;86.60;;
69719;SDS011;56988;56.122;13.798;2024-03-02T04:36:55;640.10;;;76.47;;
69719;SDS011;56988;56.122;13.798;2024-03-02T04:37:55;691.40;;;75.05;;
69719;SDS011;56988;56.122;13.798;2024-03-02T04:38:56;757.30;;;87.83;;
69719;SDS011;56988;56.122;13.798;2024-03-02T04:40:56;961.55;;;91.93;;
69719;SDS011;56988;56.122;13.798;2024-03-02T04:41:56;895.33;;;87.37;;
69719;SDS011;56988;56.122;13.798;2024-03-02T04:42:57;1020.20;;;92.38;;
69719;SDS011;56988;56.122;13.798;2024-03-02T04:43:59;758.60;;;82.43;;
69719;SDS011;56988;56.122;13.798;2024-03-02T04:44:59;816.23;;;85.77;;
69719;SDS011;56988;56.122;13.798;2024-03-02T04:45:59;963.38;;;93.28;;
69719;SDS011;56988;56.122;13.798;2024-03-02T04:47:00;820.92;;;84.80;;
69719;SDS011;56988;56.122;13.798;2024-03-02T04:48:00;839.88;;;87.43;;
69719;SDS011;56988;56.122;13.798;2024-03-02T04:49:00;957.70;;;91.85;;
69719;SDS011;56988;56.122;13.798;2024-03-02T04:51:00;794.63;;;82.30;;
69719;SDS011;56988;56.122;13.798;2024-03-02T04:52:01;711.07;;;79.47;;
69719;SDS011;56988;56.122;13.798;2024-03-02T04:53:01;878.40;;;81.90;;
69719;SDS011;56988;56.122;13.798;2024-03-02T04:54:02;909.42;;;90.80;;
69719;SDS011;56988;56.122;13.798;2024-03-02T04:55:03;592.50;;;69.70;;
69719;SDS011;56988;56.122;13.798;2024-03-02T04:56:09;801.17;;;79.40;;
69719;SDS011;56988;56.122;13.798;2024-03-02T04:57:20;832.65;;;81.88;;
69719;SDS011;56988;56.122;13.798;2024-03-02T04:58:20;701.90;;;74.87;;
69719;SDS011;56988;56.122;13.798;2024-03-02T04:59:20;845.87;;;82.47;;
69719;SDS011;56988;56.122;13.798;2024-03-02T05:00:21;751.97;;;80.32;;
69719;SDS011;56988;56.122;13.798;2024-03-02T05:01:21;774.20;;;82.25;;
69719;SDS011;56988;56.122;13.798;2024-03-02T05:02:21;927.90;;;84.30;;
69719;SDS011;56988;56.122;13.798;2024-03-02T05:03:21;581.37;;;66.43;;
69719;SDS011;56988;56.122;13.798;2024-03-02T05:04:21;593.78;;;73.35;;
69719;SDS011;56988;56.122;13.798;2024-03-02T05:05:21;974.37;;;85.80;;
69719;SDS011;56988;56.122;13.798;2024-03-02T05:06:22;905.30;;;92.72;;
69719;SDS011;56988;56.122;13.798;2024-03-02T05:07:22;801.30;;;82.15;;
69719;SDS011;56988;56.122;13.798;2024-03-02T05:08:23;802.72;;;80.85;;
69719;SDS011;56988;56.122;13.798;2024-03-02T05:09:23;570.53;;;69.23;;
69719;SDS011;56988;56.122;13.798;2024-03-02T05:10:23;765.87;;;76.17;;
69719;SDS011;56988;56.122;13.798;2024-03-02T05:11:24;738.90;;;79.20;;
69719;SDS011;56988;56.122;13.798;2024-03-02T05:12:39;648.63;;;73.35;;
69719;SDS011;56988;56.122;13.798;2024-03-02T05:13:42;832.40;;;86.10;;
69719;SDS011;56988;56.122;13.798;2024-03-02T05:14:42;834.33;;;87.60;;
69719;SDS011;56988;56.122;13.798;2024-03-02T05:15:43;595.83;;;66.32;;
69719;SDS011;56988;56.122;13.798;2024-03-02T05:16:43;771.13;;;83.20;;
69719;SDS011;56988;56.122;13.798;2024-03-02T05:17:43;751.10;;;84.27;;
69719;SDS011;56988;56.122;13.798;2024-03-02T05:18:43;827.60;;;86.97;;
69719;SDS011;56988;56.122;13.798;2024-03-02T05:19:44;420.50;;;58.00;;
69719;SDS011;56988;56.122;13.798;2024-03-02T05:20:44;466.70;;;64.73;;
69719;SDS011;56988;56.122;13.798;2024-03-02T05:21:44;435.10;;;65.33;;
69719;SDS011;56988;56.122;13.798;2024-03-02T05:22:44;617.88;;;77.70;;
69719;SDS011;56988;56.122;13.798;2024-03-02T05:23:44;548.03;;;73.27;;
69719;SDS011;56988;56.122;13.798;2024-03-02T05:24:45;436.17;;;70.10;;
69719;SDS011;56988;56.122;13.798;2024-03-02T05:25:45;756.23;;;83.43;;
69719;SDS011;56988;56.122;13.798;2024-03-02T05:26:45;375.27;;;62.03;;
69719;SDS011;56988;56.122;13.798;2024-03-02T05:27:45;449.20;;;69.20;;
69719;SDS011;56988;56.122;13.798;2024-03-02T05:28:46;495.05;;;68.00;;
69719;SDS011;56988;56.122;13.798;2024-03-02T05:29:46;348.47;;;55.60;;
69719;SDS011;56988;56.122;13.798;2024-03-02T05:30:47;363.27;;;65.22;;
69719;SDS011;56988;56.122;13.798;2024-03-02T05:31:47;460.15;;;62.90;;
69719;SDS011;56988;56.122;13.798;2024-03-02T05:32:48;336.83;;;58.58;;
69719;SDS011;56988;56.122;13.798;2024-03-02T05:33:48;355.92;;;64.60;;
69719;SDS011;56988;56.122;13.798;2024-03-02T05:34:48;375.63;;;61.63;;
69719;SDS011;56988;56.122;13.798;2024-03-02T05:35:48;482.97;;;68.00;;
69719;SDS011;56988;56.122;13.798;2024-03-02T05:36:50;631.88;;;77.47;;
69719;SDS011;56988;56.122;13.798;2024-03-02T05:37:50;472.97;;;65.73;;
69719;SDS011;56988;56.122;13.798;2024-03-02T05:38:50;608.43;;;74.00;;
69719;SDS011;56988;56.122;13.798;2024-03-02T05:39:50;424.30;;;68.57;;
69719;SDS011;56988;56.122;13.798;2024-03-02T05:40:51;398.63;;;69.07;;
69719;SDS011;56988;56.122;13.798;2024-03-02T05:41:51;307.65;;;55.35;;
69719;SDS011;56988;56.122;13.798;2024-03-02T05:42:51;319.42;;;61.95;;
69719;SDS011;56988;56.122;13.798;2024-03-02T05:43:52;533.92;;;72.82;;
69719;SDS011;56988;56.122;13.798;2024-03-02T05:44:52;601.88;;;70.63;;
69719;SDS011;56988;56.122;13.798;2024-03-02T05:46:53;348.93;;;58.20;;
69719;SDS011;56988;56.122;13.798;2024-03-02T05:47:53;290.63;;;62.97;;
69719;SDS011;56988;56.122;13.798;2024-03-02T05:48:53;375.20;;;59.40;;
69719;SDS011;56988;56.122;13.798;2024-03-02T05:49:53;300.40;;;56.03;;
69719;SDS011;56988;56.122;13.798;2024-03-02T05:50:54;366.48;;;62.20;;
69719;SDS011;56988;56.122;13.798;2024-03-02T05:51:54;261.80;;;56.70;;
69719;SDS011;56988;56.122;13.798;2024-03-02T05:53:56;272.30;;;51.80;;
69719;SDS011;56988;56.122;13.798;2024-03-02T05:55:56;312.67;;;58.23;;
69719;SDS011;56988;56.122;13.798;2024-03-02T05:56:56;327.10;;;61.10;;
69719;SDS011;56988;56.122;13.798;2024-03-02T05:57:57;393.48;;;63.72;;
69719;SDS011;56988;56.122;13.798;2024-03-02T05:59:05;369.58;;;64.63;;
69719;SDS011;56988;56.122;13.798;2024-03-02T06:00:12;268.55;;;55.85;;
69719;SDS011;56988;56.122;13.798;2024-03-02T06:01:13;307.63;;;57.75;;
69719;SDS011;56988;56.122;13.798;2024-03-02T06:02:13;300.83;;;63.00;;
69719;SDS011;56988;56.122;13.798;2024-03-02T06:03:13;267.97;;;61.07;;
69719;SDS011;56988;56.122;13.798;2024-03-02T06:04:13;470.75;;;70.55;;
69719;SDS011;56988;56.122;13.798;2024-03-02T06:05:14;518.45;;;71.32;;
69719;SDS011;56988;56.122;13.798;2024-03-02T06:06:15;339.60;;;63.72;;
69719;SDS011;56988;56.122;13.798;2024-03-02T06:07:16;227.95;;;55.30;;
69719;SDS011;56988;56.122;13.798;2024-03-02T06:08:16;249.80;;;56.35;;
69719;SDS011;56988;56.122;13.798;2024-03-02T06:09:16;270.77;;;59.27;;
69719;SDS011;56988;56.122;13.798;2024-03-02T06:10:16;264.73;;;55.57;;
69719;SDS011;56988;56.122;13.798;2024-03-02T06:11:18;270.30;;;58.55;;